createdAt,value
2018-06-23T00:02:06.667Z,70.68
2018-06-23T00:04:38.224Z,70.95
2018-06-23T00:07:12.700Z,70.95
2018-06-23T00:09:44.107Z,71.40
2018-06-23T00:12:15.550Z,71.52
2018-06-23T00:14:48.509Z,71.53
2018-06-23T00:17:21.100Z,71.46
2018-06-23T00:19:54.331Z,71.41
2018-06-23T00:22:28.770Z,71.95
2018-06-23T00:25:01.959Z,72.18
2018-06-23T00:27:33.434Z,72.29
2018-06-23T00:30:08.186Z,72.11
2018-06-23T00:32:41.026Z,72.74
2018-06-23T00:35:14.268Z,73.00
2018-06-23T00:37:46.331Z,72.48
2018-06-23T00:40:19.681Z,72.59
2018-06-23T00:42:52.557Z,73.22
2018-06-23T00:45:27.099Z,73.04
2018-06-23T00:48:00.061Z,72.91
2018-06-23T00:50:34.398Z,73.19
2018-06-23T00:53:06.813Z,73.10
2018-06-23T00:55:38.329Z,73.42
2018-06-23T00:58:09.734Z,73.19
2018-06-23T01:00:44.007Z,73.03
2018-06-23T01:03:17.023Z,72.98
2018-06-23T01:05:50.034Z,73.44
2018-06-23T01:08:24.820Z,73.33
2018-06-23T01:10:59.108Z,73.45
2018-06-23T01:13:29.667Z,73.61
2018-06-23T01:16:01.402Z,73.87
2018-06-23T01:18:36.119Z,73.96
2018-06-23T01:21:08.258Z,74.43
2018-06-23T01:23:41.375Z,74.01
2018-06-23T01:26:15.728Z,74.45
2018-06-23T01:28:48.652Z,73.93
2018-06-23T01:31:22.994Z,74.08
2018-06-23T01:33:57.643Z,74.52
2018-06-23T01:36:28.285Z,74.41
2018-06-23T01:39:00.930Z,74.35
2018-06-23T01:41:35.262Z,74.30
2018-06-23T01:44:09.813Z,74.41
2018-06-23T01:46:42.694Z,74.28
2018-06-23T01:49:15.799Z,74.58
2018-06-23T01:51:48.226Z,74.47
2018-06-23T01:54:19.742Z,74.77
2018-06-23T01:56:52.910Z,74.85
2018-06-23T01:59:24.282Z,74.16
2018-06-23T02:01:53.912Z,74.50
2018-06-23T02:04:26.699Z,74.33
2018-06-23T02:06:59.098Z,75.09
2018-06-23T02:09:29.981Z,74.63
2018-06-23T02:12:04.365Z,74.36
2018-06-23T02:14:52.698Z,74.41
2018-06-23T02:17:43.290Z,74.73
2018-06-23T02:20:33.471Z,74.41
2018-06-23T02:23:24.000Z,74.47
2018-06-23T02:26:14.072Z,74.00
2018-06-23T02:29:01.024Z,73.64
2018-06-23T02:31:49.370Z,73.64
2018-06-23T02:34:37.361Z,73.56
2018-06-23T02:37:09.040Z,73.83
2018-06-23T02:39:40.013Z,73.73
2018-06-23T02:42:14.612Z,73.25
2018-06-23T02:44:47.547Z,73.45
2018-06-23T02:47:20.455Z,73.15
2018-06-23T02:49:55.588Z,73.08
2018-06-23T02:52:30.570Z,73.33
2018-06-23T02:55:04.961Z,73.71
2018-06-23T02:57:38.039Z,73.62
2018-06-23T03:00:09.309Z,73.11
2018-06-23T03:02:40.721Z,73.35
2018-06-23T03:05:13.595Z,73.81
2018-06-23T03:07:47.824Z,73.65
2018-06-23T03:10:20.899Z,73.31
2018-06-23T03:12:53.772Z,73.19
2018-06-23T03:15:28.027Z,73.58
2018-06-23T03:17:58.025Z,73.94
2018-06-23T03:20:33.423Z,73.66
2018-06-23T03:23:06.304Z,74.25
2018-06-23T03:25:40.636Z,73.78
2018-06-23T03:28:10.545Z,73.45
2018-06-23T03:30:41.915Z,73.58
2018-06-23T03:33:16.238Z,73.71
2018-06-23T03:35:50.229Z,73.55
2018-06-23T03:38:24.682Z,73.65
2018-06-23T03:40:56.162Z,73.74
2018-06-23T03:43:27.596Z,73.32
2018-06-23T03:46:00.455Z,73.28
2018-06-23T03:48:34.824Z,73.64
2018-06-23T03:51:07.741Z,73.17
2018-06-23T03:53:40.900Z,73.25
2018-06-23T03:56:13.859Z,72.97
2018-06-23T03:58:46.463Z,72.78
2018-06-23T04:01:20.734Z,73.21
2018-06-23T04:03:53.829Z,73.00
2018-06-23T04:06:26.716Z,72.98
2018-06-23T04:08:59.291Z,72.86
2018-06-23T04:11:30.716Z,73.36
2018-06-23T04:14:02.183Z,72.58
2018-06-23T04:16:34.973Z,72.75
2018-06-23T04:19:05.576Z,72.25
2018-06-23T04:21:36.932Z,70.65
2018-06-23T04:24:09.477Z,71.77
2018-06-23T04:26:43.975Z,69.34
2018-06-23T04:29:18.388Z,66.18
2018-06-23T04:31:51.119Z,64.70
2018-06-23T04:34:25.520Z,62.64
2018-06-23T04:36:58.310Z,62.24
2018-06-23T04:39:27.488Z,64.39
2018-06-23T04:42:02.073Z,65.38
2018-06-23T04:44:34.938Z,65.20
2018-06-23T04:47:07.803Z,62.85
2018-06-23T04:49:40.046Z,64.10
2018-06-23T04:52:11.525Z,66.49
2018-06-23T04:54:42.819Z,67.68
2018-06-23T04:57:15.826Z,68.47
2018-06-23T04:59:47.563Z,68.31
2018-06-23T05:02:17.432Z,67.43
2018-06-23T05:04:50.204Z,68.20
2018-06-23T05:07:20.206Z,68.35
2018-06-23T05:09:54.341Z,66.84
2018-06-23T05:12:26.359Z,65.76
2018-06-23T05:15:00.715Z,64.04
2018-06-23T05:17:34.089Z,63.82
2018-06-23T05:20:07.052Z,59.95
2018-06-23T05:22:39.956Z,58.30
2018-06-23T05:25:13.399Z,61.38
2018-06-23T05:27:44.733Z,62.80
2018-06-23T05:30:17.687Z,64.66
2018-06-23T05:32:49.134Z,65.07
2018-06-23T05:35:18.250Z,66.06
2018-06-23T05:37:49.694Z,65.07
2018-06-23T05:40:21.111Z,62.65
2018-06-23T05:42:51.019Z,58.59
2018-06-23T05:45:22.709Z,58.25
2018-06-23T05:47:57.087Z,60.13
2018-06-23T05:50:28.449Z,61.39
2018-06-23T05:52:59.819Z,61.04
2018-06-23T05:55:30.906Z,61.59
2018-06-23T05:58:02.396Z,60.98
2018-06-23T06:00:36.762Z,62.15
2018-06-23T06:03:10.126Z,61.51
2018-06-23T06:05:44.370Z,60.17
2018-06-23T06:08:17.608Z,59.47
2018-06-23T06:10:50.441Z,58.75
2018-06-23T06:13:23.258Z,58.00
2018-06-23T06:15:57.861Z,57.73
2018-06-23T06:18:28.376Z,58.29
2018-06-23T06:21:01.815Z,55.62
2018-06-23T06:23:34.942Z,54.47
2018-06-23T06:26:06.351Z,51.03
2018-06-23T06:28:39.125Z,50.59
2018-06-23T06:31:12.051Z,51.69
2018-06-23T06:33:44.849Z,52.24
2018-06-23T06:36:19.052Z,52.62
2018-06-23T06:38:51.801Z,51.35
2018-06-23T06:41:25.770Z,53.95
2018-06-23T06:43:58.477Z,55.67
2018-06-23T06:46:31.377Z,53.78
2018-06-23T06:49:01.999Z,55.71
2018-06-23T06:51:34.797Z,56.14
2018-06-23T06:54:07.209Z,59.62
2018-06-23T06:56:39.255Z,60.01
2018-06-23T06:59:12.004Z,58.96
2018-06-23T07:01:46.667Z,59.45
2018-06-23T07:04:20.352Z,59.16
2018-06-23T07:06:55.157Z,59.31
2018-06-23T07:09:25.015Z,57.67
2018-06-23T07:11:56.823Z,57.31
2018-06-23T07:14:31.168Z,59.07
2018-06-23T07:17:02.608Z,54.28
2018-06-23T07:19:37.473Z,54.93
2018-06-23T07:22:10.276Z,55.57
2018-06-23T07:24:43.107Z,54.34
2018-06-23T07:27:15.908Z,56.42
2018-06-23T07:29:50.118Z,52.87
2018-06-23T07:32:23.741Z,51.62
2018-06-23T07:34:55.353Z,50.37
2018-06-23T07:37:26.881Z,50.98
2018-06-23T07:40:01.188Z,49.41
2018-06-23T07:42:32.592Z,49.96
2018-06-23T07:45:06.861Z,51.86
2018-06-23T07:47:41.223Z,49.05
2018-06-23T07:50:15.521Z,51.22
2018-06-23T07:52:47.013Z,50.42
2018-06-23T07:55:19.846Z,48.46
2018-06-23T07:57:52.668Z,48.69
2018-06-23T08:00:24.005Z,49.93
2018-06-23T08:02:58.755Z,51.11
2018-06-23T08:05:31.717Z,54.89
2018-06-23T08:08:03.911Z,54.80
2018-06-23T08:10:36.849Z,55.17
2018-06-23T08:13:11.162Z,55.19
2018-06-23T08:15:44.825Z,56.69
2018-06-23T08:18:17.826Z,54.66
2018-06-23T08:20:51.986Z,54.85
2018-06-23T08:23:26.200Z,55.72
2018-06-23T08:25:57.546Z,54.78
2018-06-23T08:28:29.462Z,56.37
2018-06-23T08:31:02.271Z,55.91
2018-06-23T08:33:32.115Z,57.39
2018-06-23T08:36:06.385Z,55.07
2018-06-23T08:38:40.432Z,56.06
2018-06-23T08:41:11.794Z,57.88
2018-06-23T08:43:43.952Z,54.96
2018-06-23T08:46:15.561Z,55.64
2018-06-23T08:48:49.725Z,56.79
2018-06-23T08:51:23.941Z,56.45
2018-06-23T08:53:56.389Z,57.44
2018-06-23T08:56:27.812Z,57.04
2018-06-23T08:58:59.186Z,57.15
2018-06-23T09:01:33.477Z,56.37
2018-06-23T09:04:05.289Z,57.07
2018-06-23T09:06:38.089Z,57.08
2018-06-23T09:09:13.132Z,57.35
2018-06-23T09:11:45.894Z,57.44
2018-06-23T09:14:20.130Z,55.29
2018-06-23T09:16:53.037Z,54.79
2018-06-23T09:19:23.481Z,56.05
2018-06-23T09:21:55.449Z,54.96
2018-06-23T09:24:28.267Z,56.33
2018-06-23T09:26:59.717Z,55.78
2018-06-23T09:29:31.663Z,55.84
2018-06-23T09:32:03.050Z,57.37
2018-06-23T09:34:35.945Z,56.88
2018-06-23T09:37:08.642Z,56.81
2018-06-23T09:39:39.986Z,57.81
2018-06-23T09:42:12.195Z,57.01
2018-06-23T09:44:42.758Z,58.78
2018-06-23T09:47:14.118Z,57.20
2018-06-23T09:49:47.837Z,57.06
2018-06-23T09:52:19.163Z,57.84
2018-06-23T09:54:53.469Z,57.93
2018-06-23T09:57:27.751Z,58.52
2018-06-23T10:00:02.054Z,57.84
2018-06-23T10:02:33.351Z,58.08
2018-06-23T10:05:04.748Z,57.80
2018-06-23T10:07:35.007Z,58.27
2018-06-23T10:10:04.063Z,59.47
2018-06-23T10:12:36.444Z,57.49
2018-06-23T10:15:08.832Z,57.75
2018-06-23T10:17:40.274Z,56.33
2018-06-23T10:20:10.135Z,57.33
2018-06-23T10:22:40.801Z,55.63
2018-06-23T10:25:12.954Z,55.74
2018-06-23T10:27:47.268Z,56.04
2018-06-23T10:30:18.805Z,56.26
2018-06-23T10:32:49.332Z,55.45
2018-06-23T10:35:21.553Z,55.72
2018-06-23T10:37:55.054Z,56.00
2018-06-23T10:40:28.296Z,56.22
2018-06-23T10:42:59.593Z,53.97
2018-06-23T10:45:32.702Z,55.73
2018-06-23T10:48:06.977Z,55.21
2018-06-23T10:50:41.930Z,54.70
2018-06-23T10:53:14.741Z,54.81
2018-06-23T10:55:47.712Z,55.04
2018-06-23T10:58:20.571Z,55.39
2018-06-23T11:00:54.103Z,54.36
2018-06-23T11:03:28.322Z,55.61
2018-06-23T11:06:02.131Z,55.19
2018-06-23T11:08:33.479Z,56.04
2018-06-23T11:11:06.208Z,56.77
2018-06-23T11:13:39.742Z,55.72
2018-06-23T11:16:11.598Z,57.45
2018-06-23T11:18:45.833Z,55.01
2018-06-23T11:21:20.245Z,53.17
2018-06-23T11:23:53.045Z,55.68
2018-06-23T11:26:25.791Z,55.56
2018-06-23T11:28:59.163Z,55.43
2018-06-23T11:31:30.537Z,54.67
2018-06-23T11:34:03.344Z,54.48
2018-06-23T11:36:36.149Z,55.11
2018-06-23T11:39:13.429Z,56.46
2018-06-23T11:41:46.230Z,60.59
2018-06-23T11:44:20.095Z,57.56
2018-06-23T11:46:53.175Z,56.48
2018-06-23T11:49:28.421Z,57.70
2018-06-23T11:52:00.717Z,56.35
2018-06-23T11:54:33.074Z,56.70
2018-06-23T11:57:07.516Z,55.52
2018-06-23T11:59:41.745Z,54.77
2018-06-23T12:02:15.238Z,55.51
2018-06-23T12:04:48.702Z,54.64
2018-06-23T12:07:22.372Z,52.63
2018-06-23T12:09:56.843Z,53.16
2018-06-23T12:12:26.742Z,53.45
2018-06-23T12:14:59.597Z,54.45
2018-06-23T12:17:33.941Z,53.74
2018-06-23T12:20:08.727Z,52.04
2018-06-23T12:22:38.488Z,53.40
2018-06-23T12:25:10.857Z,55.49
2018-06-23T12:27:43.716Z,53.28
2018-06-23T12:30:16.652Z,54.28
2018-06-23T12:32:50.023Z,53.54
2018-06-23T12:35:22.820Z,54.23
2018-06-23T12:37:52.456Z,52.74
2018-06-23T12:40:25.331Z,52.67
2018-06-23T12:42:57.407Z,52.70
2018-06-23T12:45:30.141Z,51.83
2018-06-23T12:48:02.004Z,48.22
2018-06-23T12:50:34.844Z,49.61
2018-06-23T12:53:08.274Z,50.95
2018-06-23T12:55:40.567Z,50.72
2018-06-23T12:58:13.538Z,49.29
2018-06-23T13:00:44.986Z,48.33
2018-06-23T13:03:16.338Z,48.17
2018-06-23T13:05:47.700Z,50.67
2018-06-23T13:08:20.556Z,50.50
2018-06-23T13:10:55.057Z,48.94
2018-06-23T13:13:27.861Z,48.43
2018-06-23T13:15:59.884Z,48.35
2018-06-23T13:18:32.656Z,47.17
2018-06-23T13:21:03.982Z,46.06
2018-06-23T13:23:36.916Z,44.56
2018-06-23T13:26:09.979Z,45.23
2018-06-23T13:28:44.330Z,43.96
2018-06-23T13:31:15.711Z,44.81
2018-06-23T13:33:50.117Z,45.90
2018-06-23T13:36:22.945Z,42.82
2018-06-23T13:38:54.860Z,42.31
2018-06-23T13:41:28.105Z,42.19
2018-06-23T13:44:00.156Z,43.34
2018-06-23T13:46:33.071Z,42.92
2018-06-23T13:49:06.583Z,43.30
2018-06-23T13:51:36.553Z,42.58
2018-06-23T13:54:08.525Z,40.79
2018-06-23T13:56:40.859Z,41.54
2018-06-23T13:59:15.217Z,42.78
2018-06-23T14:01:51.367Z,42.47
2018-06-23T14:04:25.968Z,42.15
2018-06-23T14:06:56.751Z,41.10
2018-06-23T14:09:29.035Z,42.71
2018-06-23T14:12:00.454Z,42.19
2018-06-23T14:14:33.537Z,43.20
2018-06-23T14:17:06.449Z,43.45
2018-06-23T14:19:39.974Z,41.47
2018-06-23T14:22:12.823Z,40.43
2018-06-23T14:24:44.293Z,41.25
2018-06-23T14:27:17.089Z,38.52
2018-06-23T14:29:50.009Z,41.92
2018-06-23T14:32:23.059Z,40.33
2018-06-23T14:34:55.970Z,41.03
2018-06-23T14:37:29.062Z,42.40
2018-06-23T14:40:00.523Z,42.76
2018-06-23T14:42:33.284Z,45.60
2018-06-23T14:45:05.191Z,42.99
2018-06-23T14:47:38.597Z,41.30
2018-06-23T14:50:11.594Z,42.41
2018-06-23T14:52:44.449Z,41.53
2018-06-23T14:55:15.926Z,40.41
2018-06-23T14:57:48.760Z,40.69
2018-06-23T15:00:21.670Z,40.54
2018-06-23T15:02:53.216Z,42.18
2018-06-23T15:05:26.418Z,43.63
2018-06-23T15:07:59.426Z,41.52
2018-06-23T15:11:07.051Z,41.85
2018-06-23T15:13:40.115Z,40.43
2018-06-23T15:16:12.934Z,41.25
2018-06-23T15:18:47.334Z,39.37
2018-06-23T15:21:18.532Z,40.32
2018-06-23T15:23:51.599Z,42.59
2018-06-23T15:26:24.802Z,39.14
2018-06-23T15:28:57.545Z,38.78
2018-06-23T15:31:31.980Z,38.73
2018-06-23T15:34:04.896Z,39.17
2018-06-23T15:36:39.679Z,40.48
2018-06-23T15:39:12.439Z,39.18
2018-06-23T15:41:46.118Z,41.23
2018-06-23T15:44:18.956Z,40.75
2018-06-23T15:46:53.485Z,40.42
2018-06-23T15:49:27.731Z,40.24
2018-06-23T15:52:00.658Z,39.04
2018-06-23T15:54:33.652Z,39.36
2018-06-23T15:57:05.053Z,40.02
2018-06-23T15:59:38.708Z,39.76
2018-06-23T16:02:09.160Z,39.92
2018-06-23T16:04:40.583Z,38.95
2018-06-23T16:07:13.588Z,39.70
2018-06-23T16:09:46.606Z,39.08
2018-06-23T16:12:20.837Z,39.57
2018-06-23T16:14:52.422Z,39.38
2018-06-23T16:17:23.847Z,38.98
2018-06-23T16:19:58.623Z,37.33
2018-06-23T16:22:30.038Z,36.83
2018-06-23T16:25:03.457Z,39.23
2018-06-23T16:27:36.613Z,36.68
2018-06-23T16:30:09.848Z,38.47
2018-06-23T16:32:42.278Z,38.83
2018-06-23T16:35:14.883Z,37.78
2018-06-23T16:37:44.576Z,38.75
2018-06-23T16:40:17.325Z,37.08
2018-06-23T16:42:50.275Z,38.69
2018-06-23T16:45:21.627Z,40.31
2018-06-23T16:47:56.262Z,38.91
2018-06-23T16:50:29.095Z,38.44
2018-06-23T16:53:01.934Z,39.03
2018-06-23T16:55:32.926Z,40.74
2018-06-23T16:58:06.335Z,40.30
2018-06-23T17:00:39.648Z,39.75
2018-06-23T17:03:12.516Z,40.02
2018-06-23T17:05:45.383Z,38.12
2018-06-23T17:08:16.769Z,38.82
2018-06-23T17:10:50.066Z,40.61
2018-06-23T17:13:23.201Z,40.18
2018-06-23T17:15:55.925Z,40.80
2018-06-23T17:18:27.473Z,41.07
2018-06-23T17:21:01.853Z,39.19
2018-06-23T17:23:34.662Z,38.94
2018-06-23T17:26:07.547Z,40.29
2018-06-23T17:28:41.719Z,40.84
2018-06-23T17:31:16.057Z,40.39
2018-06-23T17:33:50.651Z,40.33
2018-06-23T17:36:25.426Z,38.98
2018-06-23T17:38:57.155Z,39.54
2018-06-23T17:41:32.028Z,41.64
2018-06-23T17:44:01.981Z,41.73
2018-06-23T17:46:35.055Z,41.40
2018-06-23T17:49:07.955Z,41.70
2018-06-23T17:51:42.332Z,45.97
2018-06-23T17:54:13.710Z,42.37
2018-06-23T17:56:48.055Z,42.60
2018-06-23T17:59:21.285Z,41.87
2018-06-23T18:01:52.758Z,42.80
2018-06-23T18:04:27.197Z,43.21
2018-06-23T18:06:58.599Z,43.31
2018-06-23T18:09:31.961Z,45.22
2018-06-23T18:12:04.874Z,45.08
2018-06-23T18:14:39.056Z,45.63
2018-06-23T18:17:11.836Z,46.73
2018-06-23T18:19:46.140Z,46.00
2018-06-23T18:22:18.318Z,46.67
2018-06-23T18:24:51.751Z,45.12
2018-06-23T18:27:24.931Z,45.28
2018-06-23T18:29:59.232Z,47.49
2018-06-23T18:32:32.028Z,47.35
2018-06-23T18:35:03.355Z,48.12
2018-06-23T18:37:36.602Z,47.85
2018-06-23T18:40:07.748Z,47.88
2018-06-23T18:42:39.053Z,48.64
2018-06-23T18:45:13.426Z,49.73
2018-06-23T18:47:46.350Z,48.71
2018-06-23T18:50:19.273Z,49.45
2018-06-23T18:52:52.018Z,49.45
2018-06-23T18:55:25.661Z,50.23
2018-06-23T18:57:58.807Z,50.25
2018-06-23T19:00:30.141Z,50.11
2018-06-23T19:03:02.061Z,51.29
2018-06-23T19:05:36.567Z,51.51
2018-06-23T19:08:09.500Z,52.20
2018-06-23T19:10:42.314Z,53.77
2018-06-23T19:13:15.166Z,53.28
2018-06-23T19:15:49.406Z,52.82
2018-06-23T19:18:22.241Z,53.55
2018-06-23T19:20:54.835Z,53.43
2018-06-23T19:23:24.723Z,54.10
2018-06-23T19:25:57.628Z,54.83
2018-06-23T19:28:30.538Z,54.61
2018-06-23T19:31:00.141Z,55.79
2018-06-23T19:33:31.523Z,55.12
2018-06-23T19:36:04.814Z,55.18
2018-06-23T19:38:38.991Z,55.15
2018-06-23T19:41:28.280Z,55.35
2018-06-23T19:44:01.075Z,55.30
2018-06-23T19:46:33.835Z,55.84
2018-06-23T19:49:04.417Z,56.22
2018-06-23T19:51:35.807Z,56.56
2018-06-23T19:54:10.310Z,56.40
2018-06-23T19:56:41.651Z,56.52
2018-06-23T19:59:12.972Z,56.60
2018-06-23T20:01:45.989Z,56.97
2018-06-23T20:04:20.579Z,56.98
2018-06-23T20:06:51.957Z,57.51
2018-06-23T20:09:25.382Z,57.23
2018-06-23T20:11:59.921Z,57.76
2018-06-23T20:14:31.413Z,58.24
2018-06-23T20:17:04.364Z,58.78
2018-06-23T20:19:35.935Z,58.73
2018-06-23T20:22:10.091Z,59.75
2018-06-23T20:24:43.038Z,59.38
2018-06-23T20:27:16.190Z,59.30
2018-06-23T20:29:48.999Z,60.76
2018-06-23T20:32:22.547Z,60.90
2018-06-23T20:34:53.261Z,61.62
2018-06-23T20:37:23.197Z,60.74
2018-06-23T20:39:54.871Z,61.32
2018-06-23T20:42:25.438Z,61.75
2018-06-23T20:44:58.267Z,61.84
2018-06-23T20:47:29.710Z,61.96
2018-06-23T20:50:02.525Z,61.90
2018-06-23T20:52:36.880Z,61.63
2018-06-23T20:55:09.801Z,62.30
2018-06-23T20:57:43.405Z,62.41
2018-06-23T21:00:16.218Z,62.15
2018-06-23T21:02:46.174Z,62.63
2018-06-23T21:05:19.032Z,62.92
2018-06-23T21:07:51.844Z,63.12
2018-06-23T21:10:51.431Z,63.11
2018-06-23T21:13:24.281Z,63.43
2018-06-23T21:15:57.904Z,63.49
2018-06-23T21:18:30.752Z,64.46
2018-06-23T21:21:02.341Z,64.30
2018-06-23T21:23:35.214Z,64.84
2018-06-23T21:26:08.363Z,65.77
2018-06-23T21:28:41.166Z,64.78
2018-06-23T21:31:14.127Z,66.02
2018-06-23T21:33:47.047Z,66.66
2018-06-23T21:36:20.252Z,67.20
2018-06-23T21:38:51.603Z,67.02
2018-06-23T21:41:25.892Z,68.03
2018-06-23T21:43:58.675Z,67.89
2018-06-23T21:46:31.568Z,69.69
2018-06-23T21:49:03.779Z,69.66
2018-06-23T21:51:38.042Z,69.94
2018-06-23T21:54:09.614Z,69.92
2018-06-23T21:56:42.482Z,70.67
2018-06-23T21:59:12.326Z,71.34
2018-06-23T22:01:43.739Z,69.90
2018-06-23T22:04:16.540Z,71.59
2018-06-23T22:06:49.500Z,70.13
2018-06-23T22:09:22.344Z,71.62
2018-06-23T22:11:56.574Z,71.68
2018-06-23T22:14:29.304Z,71.24
2018-06-23T22:17:00.704Z,71.11
2018-06-23T22:19:32.063Z,71.27
2018-06-23T22:22:04.637Z,71.27
2018-06-23T22:24:36.134Z,72.28
2018-06-23T22:27:06.994Z,72.02
2018-06-23T22:29:41.260Z,72.40
2018-06-23T22:32:15.480Z,72.24
2018-06-23T22:34:48.717Z,72.29
2018-06-23T22:37:21.476Z,72.28
2018-06-23T22:39:54.572Z,72.42
2018-06-23T22:42:26.573Z,72.32
2018-06-23T22:44:58.036Z,71.62
2018-06-23T22:47:29.833Z,72.13
2018-06-23T22:50:04.780Z,72.44
2018-06-23T22:52:37.678Z,72.92
2018-06-23T22:55:08.943Z,72.76
2018-06-23T22:57:43.299Z,73.08
2018-06-23T23:00:17.116Z,72.99
2018-06-23T23:02:51.717Z,72.79
2018-06-23T23:05:22.944Z,72.59
2018-06-23T23:07:54.769Z,72.65
2018-06-23T23:10:26.141Z,72.64
2018-06-23T23:13:00.734Z,73.13
2018-06-23T23:15:35.067Z,72.96
2018-06-23T23:18:06.843Z,73.75
2018-06-23T23:20:40.978Z,73.62
2018-06-23T23:23:13.058Z,73.44
2018-06-23T23:25:45.854Z,73.19
2018-06-23T23:28:15.878Z,73.19
2018-06-23T23:30:47.446Z,73.92
2018-06-23T23:33:18.089Z,73.87
2018-06-23T23:35:51.633Z,74.30
2018-06-23T23:38:22.329Z,74.08
2018-06-23T23:40:55.112Z,73.92
2018-06-23T23:43:27.988Z,74.01
2018-06-23T23:45:59.346Z,74.18
2018-06-23T23:48:32.161Z,74.29
2018-06-23T23:51:04.992Z,74.14
2018-06-23T23:53:36.315Z,74.40
2018-06-23T23:56:07.732Z,74.70
2018-06-23T23:58:41.941Z,74.96
